Time;durP1;ratioP1;P1;durP2;ratioP2;P2;SDS_P1;SDS_P2;PMS_P1;PMS_P2;Temp;Humidity;BMP_temperature;BMP_pressure;BME280_temperature;BME280_humidity;BME280_pressure;Samples;Min_cycle;Max_cycle;Signal;HPM_P1;HPM_P2
2022/12/19 00:01:50;;;;;;;0.10;0.10;;;;;;;-2.69;100.00;99565.47;4961349;28;20704;-56
2022/12/19 00:04:18;;;;;;;0.10;0.10;;;;;;;-2.67;100.00;99545.81;4970354;28;20232;-55
2022/12/19 00:06:46;;;;;;;0.00;0.00;;;;;;;-2.70;100.00;99545.03;4967198;28;20227;-55
2022/12/19 00:09:13;;;;;;;0.10;0.10;;;;;;;-2.61;100.00;99544.78;4965373;28;20248;-56
2022/12/19 00:11:40;;;;;;;0.10;0.10;;;;;;;-2.56;100.00;99542.91;4968124;28;20239;-56
2022/12/19 00:14:10;;;;;;;0.00;0.00;;;;;;;-2.54;100.00;99545.41;4963358;28;20240;-56
2022/12/19 00:16:38;;;;;;;0.03;0.03;;;;;;;-2.52;100.00;99543.66;4967489;28;20382;-54
2022/12/19 00:19:06;;;;;;;0.10;0.10;;;;;;;-2.48;100.00;99540.13;4965240;28;20278;-53
2022/12/19 00:21:34;;;;;;;0.00;0.00;;;;;;;-2.37;100.00;99544.94;4967683;28;20687;-53
2022/12/19 00:24:01;;;;;;;0.07;0.07;;;;;;;-2.36;100.00;99538.94;4962247;28;20287;-56
2022/12/19 00:26:29;;;;;;;0.00;0.00;;;;;;;-2.36;100.00;99533.81;4975358;28;20223;-55
2022/12/19 00:28:58;;;;;;;0.07;0.07;;;;;;;-2.32;100.00;99544.78;4961558;28;20323;-55
2022/12/19 00:31:26;;;;;;;0.00;0.00;;;;;;;-2.30;100.00;99550.69;4960714;28;20231;-55
2022/12/19 00:33:53;;;;;;;0.10;0.10;;;;;;;-2.27;100.00;99551.44;4951250;28;20227;-54
2022/12/19 00:36:23;;;;;;;0.00;0.00;;;;;;;-2.28;100.00;99551.47;4963118;28;20336;-56
2022/12/19 00:38:51;;;;;;;0.00;0.00;;;;;;;-2.27;100.00;99554.00;4960024;28;20605;-55
2022/12/19 00:41:20;;;;;;;0.10;0.10;;;;;;;-2.33;100.00;99550.78;4961507;28;20620;-56
2022/12/19 00:43:52;;;;;;;0.00;0.00;;;;;;;-2.37;100.00;99544.94;4969695;28;20320;-55
2022/12/19 00:46:19;;;;;;;0.00;0.00;;;;;;;-2.34;100.00;99561.91;4967781;28;20618;-55
2022/12/19 00:48:46;;;;;;;0.10;0.10;;;;;;;-2.47;100.00;99546.09;4963457;28;20227;-54
2022/12/19 00:51:14;;;;;;;0.00;0.00;;;;;;;-2.48;100.00;99546.97;4965411;28;20307;-56
2022/12/19 00:53:43;;;;;;;0.00;0.00;;;;;;;-2.49;100.00;99551.22;4960012;28;20234;-54
2022/12/19 00:56:12;;;;;;;0.00;0.00;;;;;;;-2.54;100.00;99559.06;4963502;28;20932;-56
2022/12/19 00:58:40;;;;;;;0.00;0.00;;;;;;;-2.56;100.00;99555.69;4965392;28;20237;-55
2022/12/19 01:01:08;;;;;;;0.00;0.00;;;;;;;-2.49;100.00;99546.13;4966117;28;20330;-54
2022/12/19 01:03:35;;;;;;;0.00;0.00;;;;;;;-2.45;100.00;99554.56;4965118;28;20222;-56
2022/12/19 01:06:02;;;;;;;0.00;0.00;;;;;;;-2.41;100.00;99546.72;4959232;28;20225;-54
2022/12/19 01:08:29;;;;;;;0.00;0.00;;;;;;;-2.31;100.00;99538.78;4982233;28;20226;-55
2022/12/19 01:10:58;;;;;;;0.07;0.07;;;;;;;-2.21;100.00;99529.94;4970866;28;20230;-54
2022/12/19 01:13:25;;;;;;;0.00;0.00;;;;;;;-2.08;100.00;99522.72;4964929;28;20223;-55
2022/12/19 01:15:52;;;;;;;0.10;0.10;;;;;;;-2.02;100.00;99516.59;4980920;28;20222;-57
2022/12/19 01:18:20;;;;;;;0.00;0.00;;;;;;;-1.87;100.00;99521.22;4972882;28;20400;-56
2022/12/19 01:20:47;;;;;;;0.00;0.00;;;;;;;-1.75;100.00;99519.97;4971014;28;20231;-56
2022/12/19 01:23:16;;;;;;;0.00;0.00;;;;;;;-1.74;100.00;99505.47;4972891;28;20285;-54
2022/12/19 01:25:48;;;;;;;0.00;0.00;;;;;;;-1.70;100.00;99500.16;4967402;28;20231;-56
2022/12/19 01:28:15;;;;;;;0.10;0.10;;;;;;;-1.65;100.00;99488.06;4966741;28;20220;-55
2022/12/19 01:30:42;;;;;;;0.00;0.00;;;;;;;-1.62;100.00;99484.56;4968379;28;20223;-55
2022/12/19 01:33:11;;;;;;;0.00;0.00;;;;;;;-1.54;100.00;99476.59;4967740;28;20251;-56
2022/12/19 01:35:38;;;;;;;0.00;0.00;;;;;;;-1.59;100.00;99473.38;4968183;28;20327;-56
2022/12/19 01:38:05;;;;;;;0.00;0.00;;;;;;;-1.48;100.00;99481.53;4963236;28;20219;-55
2022/12/19 01:40:34;;;;;;;0.00;0.00;;;;;;;-1.43;100.00;99492.44;4971351;28;20253;-55
2022/12/19 01:43:01;;;;;;;0.10;0.10;;;;;;;-1.46;100.00;99500.22;4965300;28;20236;-55
2022/12/19 01:45:31;;;;;;;0.10;0.10;;;;;;;-1.42;100.00;99508.63;4974395;28;20683;-54
2022/12/19 01:48:13;;;;;;;0.00;0.00;;;;;;;-1.40;100.00;99527.34;4961096;28;20711;-55
2022/12/19 01:50:44;;;;;;;0.00;0.00;;;;;;;-1.40;100.00;99514.53;4968188;28;20227;-53
2022/12/19 01:53:13;;;;;;;0.00;0.00;;;;;;;-1.59;100.00;99509.22;4963416;28;20228;-55
2022/12/19 01:55:43;;;;;;;0.00;0.00;;;;;;;-1.72;100.00;99509.63;4964575;28;20236;-55
2022/12/19 01:58:11;;;;;;;0.00;0.00;;;;;;;-1.76;100.00;99525.97;4966672;28;20242;-56
2022/12/19 02:00:41;;;;;;;0.00;0.00;;;;;;;-1.83;100.00;99504.88;4969211;28;20294;-56
2022/12/19 02:03:13;;;;;;;0.10;0.10;;;;;;;-1.83;100.00;99488.66;4964545;28;20267;-54
2022/12/19 02:05:43;;;;;;;0.00;0.00;;;;;;;-1.96;100.00;99485.69;4973041;28;20244;-53
2022/12/19 02:08:11;;;;;;;0.00;0.00;;;;;;;-2.09;100.00;99485.22;4973357;28;20565;-55
2022/12/19 02:10:37;;;;;;;0.00;0.00;;;;;;;-2.08;100.00;99505.66;4960760;28;20234;-54
2022/12/19 02:13:05;;;;;;;0.00;0.00;;;;;;;-2.05;100.00;99491.91;4965848;28;20236;-54
2022/12/19 02:15:42;;;;;;;0.00;0.00;;;;;;;-1.90;100.00;99500.00;4965935;28;20220;-54
2022/12/19 02:18:20;;;;;;;0.00;0.00;;;;;;;-1.87;100.00;99510.97;4971077;28;21359;-54
2022/12/19 02:21:19;;;;;;;0.10;0.10;;;;;;;-1.81;100.00;99512.50;4958264;28;20582;-54
2022/12/19 02:24:31;;;;;;;0.00;0.00;;;;;;;-1.76;100.00;99492.69;4966416;28;20571;-56
2022/12/19 02:27:04;;;;;;;0.00;0.00;;;;;;;-1.67;100.00;99496.69;4964857;28;20302;-56
2022/12/19 02:30:04;;;;;;;0.00;0.00;;;;;;;-1.66;100.00;99504.31;4957024;28;20651;-56
2022/12/19 02:32:47;;;;;;;0.00;0.00;;;;;;;-1.60;100.00;99503.28;4961158;28;20234;-56
2022/12/19 02:35:24;;;;;;;0.00;0.00;;;;;;;-1.54;100.00;99512.47;4961977;28;20803;-54
2022/12/19 02:37:57;;;;;;;0.00;0.00;;;;;;;-1.59;100.00;99506.66;4952898;28;20547;-56
2022/12/19 02:40:28;;;;;;;0.00;0.00;;;;;;;-1.57;100.00;99517.69;4962588;28;20688;-55
2022/12/19 02:42:59;;;;;;;0.00;0.00;;;;;;;-1.63;100.00;99523.84;4963055;28;20247;-56
2022/12/19 02:45:29;;;;;;;0.00;0.00;;;;;;;-1.65;100.00;99515.41;4971639;28;20335;-54
2022/12/19 02:48:01;;;;;;;0.00;0.00;;;;;;;-1.63;100.00;99519.56;4963959;28;20236;-56
2022/12/19 02:50:36;;;;;;;0.00;0.00;;;;;;;-1.59;100.00;99522.03;4964126;28;20286;-56
2022/12/19 02:53:02;;;;;;;0.00;0.00;;;;;;;-1.59;100.00;99524.56;4965739;28;20240;-55
2022/12/19 02:55:35;;;;;;;0.00;0.00;;;;;;;-1.58;100.00;99516.00;4970462;28;20220;-55
2022/12/19 02:58:27;;;;;;;0.10;0.10;;;;;;;-1.59;100.00;99524.56;4952825;28;20318;-56
2022/12/19 03:00:59;;;;;;;0.00;0.00;;;;;;;-1.56;100.00;99524.47;4966196;28;20295;-56
2022/12/19 03:03:36;;;;;;;0.00;0.00;;;;;;;-1.51;100.00;99525.97;4966453;28;20281;-55
2022/12/19 03:06:11;;;;;;;0.00;0.00;;;;;;;-1.50;100.00;99529.38;4971576;28;20218;-55
2022/12/19 03:08:48;;;;;;;0.03;0.03;;;;;;;-1.47;100.00;99526.72;4973474;28;20229;-56
2022/12/19 03:11:15;;;;;;;0.00;0.00;;;;;;;-1.46;100.00;99510.47;4962391;28;20235;-57
2022/12/19 03:13:53;;;;;;;0.00;0.00;;;;;;;-1.45;100.00;99509.59;4970218;28;20223;-56
2022/12/19 03:16:20;;;;;;;0.00;0.00;;;;;;;-1.42;100.00;99513.75;4968877;28;20238;-55
2022/12/19 03:18:49;;;;;;;0.00;0.00;;;;;;;-1.41;100.00;99521.41;4967620;28;20228;-56
2022/12/19 03:21:20;;;;;;;0.00;0.00;;;;;;;-1.37;100.00;99502.47;4960541;28;20231;-56
2022/12/19 03:23:49;;;;;;;0.00;0.00;;;;;;;-1.37;100.00;99493.94;4965088;28;20728;-55
2022/12/19 03:26:18;;;;;;;0.00;0.00;;;;;;;-1.31;100.00;99493.72;4966605;28;20235;-55
2022/12/19 03:28:51;;;;;;;0.00;0.00;;;;;;;-1.20;100.00;99501.06;4964316;28;20286;-55
2022/12/19 03:31:21;;;;;;;0.00;0.00;;;;;;;-1.25;100.00;99503.75;4962628;28;20868;-54
2022/12/19 03:33:54;;;;;;;0.00;0.00;;;;;;;-1.22;100.00;99495.97;4966498;28;20233;-54
2022/12/19 03:36:27;;;;;;;0.00;0.00;;;;;;;-1.19;100.00;99487.34;4969186;28;20214;-54
2022/12/19 03:38:55;;;;;;;0.00;0.00;;;;;;;-1.15;100.00;99491.47;4966743;28;20229;-54
2022/12/19 03:44:07;;;;;;;0.00;0.00;;;;;;;-1.11;100.00;99475.09;4961356;28;20268;-56
2022/12/19 03:46:38;;;;;;;0.10;0.10;;;;;;;-1.11;100.00;99476.81;4970806;28;20594;-56
2022/12/19 03:49:07;;;;;;;0.00;0.00;;;;;;;-1.09;100.00;99477.59;4965835;28;20227;-56
2022/12/19 03:51:41;;;;;;;0.00;0.00;;;;;;;-1.08;100.00;99471.56;4968308;28;20317;-56
2022/12/19 03:54:12;;;;;;;0.00;0.00;;;;;;;-1.02;100.00;99462.81;4966337;28;20245;-56
2022/12/19 03:56:45;;;;;;;0.00;0.00;;;;;;;-1.04;100.00;99461.16;4966271;28;20287;-56
2022/12/19 03:59:18;;;;;;;0.00;0.00;;;;;;;-1.06;100.00;99452.69;4960879;28;20714;-55
2022/12/19 04:04:30;;;;;;;0.00;0.00;;;;;;;-1.04;100.00;99466.28;5513299;23;20251;-57
2022/12/19 04:06:58;;;;;;;0.00;0.00;;;;;;;-0.98;100.00;99472.06;4958416;28;20715;-58
2022/12/19 04:09:25;;;;;;;0.00;0.00;;;;;;;-0.94;100.00;99471.06;4966759;28;20247;-58
2022/12/19 04:11:57;;;;;;;0.00;0.00;;;;;;;-0.90;100.00;99478.59;4964004;28;20237;-57
2022/12/19 04:14:28;;;;;;;0.00;0.00;;;;;;;-0.93;100.00;99483.84;4966412;28;20291;-57
2022/12/19 04:17:02;;;;;;;0.00;0.00;;;;;;;-0.87;100.00;99482.75;4964046;28;20240;-58
2022/12/19 04:19:34;;;;;;;0.00;0.00;;;;;;;-0.88;100.00;99500.78;4966778;28;20707;-57
2022/12/19 04:22:10;;;;;;;0.00;0.00;;;;;;;-0.86;100.00;99499.00;4963789;28;20244;-57
2022/12/19 04:24:40;;;;;;;0.03;0.03;;;;;;;-0.78;100.00;99496.97;4966001;28;20256;-56
2022/12/19 04:27:10;;;;;;;0.00;0.00;;;;;;;-0.71;100.00;99497.56;4961711;28;20240;-58
2022/12/19 04:29:38;;;;;;;0.00;0.00;;;;;;;-0.70;100.00;99487.28;4966132;28;20244;-57
2022/12/19 04:32:07;;;;;;;0.00;0.00;;;;;;;-0.69;100.00;99483.81;5177801;23;20643;-57
2022/12/19 04:34:35;;;;;;;0.00;0.00;;;;;;;-0.67;100.00;99499.97;4984839;28;20616;-57
2022/12/19 04:37:04;;;;;;;0.00;0.00;;;;;;;-0.69;100.00;99496.63;4981891;28;20228;-57
2022/12/19 04:39:31;;;;;;;0.07;0.07;;;;;;;-0.68;100.00;99503.44;4985592;28;20221;-57
2022/12/19 04:41:57;;;;;;;0.00;0.00;;;;;;;-0.65;100.00;99498.19;4967266;28;20230;-55
2022/12/19 04:44:24;;;;;;;0.00;0.00;;;;;;;-0.68;100.00;99494.88;4957348;28;20281;-56
2022/12/19 04:46:50;;;;;;;0.00;0.00;;;;;;;-0.62;100.00;99492.94;4953295;28;20229;-57
2022/12/19 04:49:18;;;;;;;0.00;0.00;;;;;;;-0.64;100.00;99502.44;4951951;28;20316;-56
2022/12/19 04:51:46;;;;;;;0.00;0.00;;;;;;;-0.60;100.00;99498.00;4953208;28;20221;-57
2022/12/19 04:54:12;;;;;;;0.00;0.00;;;;;;;-0.61;100.00;99494.63;4954715;28;20287;-57
2022/12/19 04:56:39;;;;;;;0.00;0.00;;;;;;;-0.56;100.00;99496.19;4954782;28;21154;-57
2022/12/19 04:59:05;;;;;;;0.00;0.00;;;;;;;-0.55;100.00;99480.72;4953003;28;20244;-56
2022/12/19 05:01:32;;;;;;;0.00;0.00;;;;;;;-0.50;100.00;99488.22;4957279;28;20253;-56
2022/12/19 05:03:58;;;;;;;0.00;0.00;;;;;;;-0.49;100.00;99489.88;4953256;28;20237;-58
2022/12/19 05:06:25;;;;;;;0.00;0.00;;;;;;;-0.48;100.00;99477.00;4953462;28;20232;-57
2022/12/19 05:08:54;;;;;;;0.07;0.07;;;;;;;-0.47;100.00;99473.56;4949371;28;20233;-57
2022/12/19 05:11:21;;;;;;;0.10;0.10;;;;;;;-0.46;100.00;99474.38;4957043;28;20297;-55
2022/12/19 05:13:48;;;;;;;0.07;0.07;;;;;;;-0.45;100.00;99471.78;4954419;28;20234;-57
2022/12/19 05:16:15;;;;;;;0.10;0.10;;;;;;;-0.44;100.00;99472.59;4954920;28;20237;-56
2022/12/19 05:18:42;;;;;;;0.10;0.10;;;;;;;-0.42;100.00;99464.84;4954454;28;20296;-57
2022/12/19 05:21:09;;;;;;;0.00;0.00;;;;;;;-0.41;100.00;99451.13;4951391;28;20253;-56
2022/12/19 05:23:37;;;;;;;0.00;0.00;;;;;;;-0.39;100.00;99457.03;4955356;28;20249;-57
2022/12/19 05:26:06;;;;;;;0.00;0.00;;;;;;;-0.33;100.00;99461.91;4953976;28;20635;-56
2022/12/19 05:28:33;;;;;;;0.00;0.00;;;;;;;-0.35;100.00;99450.88;4963060;28;20235;-56
2022/12/19 05:31:05;;;;;;;0.00;0.00;;;;;;;-0.34;100.00;99445.69;4953179;28;20245;-56
2022/12/19 05:33:31;;;;;;;0.00;0.00;;;;;;;-0.30;100.00;99446.41;4950351;28;20241;-57
2022/12/19 05:35:58;;;;;;;0.00;0.00;;;;;;;-0.31;100.00;99442.16;4952373;28;20391;-57
2022/12/19 05:38:26;;;;;;;0.00;0.00;;;;;;;-0.29;100.00;99445.50;4952717;28;20241;-56
2022/12/19 05:40:52;;;;;;;0.00;0.00;;;;;;;-0.27;100.00;99435.16;4955057;28;20346;-56
2022/12/19 05:43:21;;;;;;;0.07;0.07;;;;;;;-0.27;100.00;99433.47;4956387;28;20250;-56
2022/12/19 05:45:47;;;;;;;0.00;0.00;;;;;;;-0.24;100.00;99440.19;4953977;28;20280;-55
2022/12/19 05:48:14;;;;;;;0.00;0.00;;;;;;;-0.19;100.00;99443.41;4952022;28;20234;-56
2022/12/19 05:50:41;;;;;;;0.00;0.00;;;;;;;-0.26;100.00;99445.38;4952793;28;20717;-56
2022/12/19 05:53:10;;;;;;;0.00;0.00;;;;;;;-0.18;100.00;99445.91;4950097;28;20237;-57
2022/12/19 05:55:37;;;;;;;0.00;0.00;;;;;;;-0.19;100.00;99462.22;4953931;28;20229;-57
2022/12/19 05:58:04;;;;;;;0.00;0.00;;;;;;;-0.20;100.00;99447.72;4953663;28;20708;-57
2022/12/19 06:00:31;;;;;;;0.00;0.00;;;;;;;-0.19;100.00;99459.66;4960662;28;20265;-57
2022/12/19 06:02:58;;;;;;;0.00;0.00;;;;;;;-0.19;100.00;99457.06;4953560;28;20245;-56
2022/12/19 06:05:25;;;;;;;0.00;0.00;;;;;;;-0.15;100.00;99460.34;4957863;28;20236;-57
2022/12/19 06:07:51;;;;;;;0.00;0.00;;;;;;;-0.16;100.00;99458.66;4955600;28;20716;-57
2022/12/19 06:10:18;;;;;;;0.00;0.00;;;;;;;-0.16;100.00;99454.38;4956133;28;20644;-55
2022/12/19 06:12:44;;;;;;;0.00;0.00;;;;;;;-0.16;100.00;99451.81;4957937;28;20396;-57
2022/12/19 06:15:12;;;;;;;0.00;0.00;;;;;;;-0.18;100.00;99451.06;4956794;28;20301;-57
2022/12/19 06:17:40;;;;;;;0.00;0.00;;;;;;;-0.14;100.00;99458.63;4957613;28;20265;-57
2022/12/19 06:20:07;;;;;;;0.10;0.10;;;;;;;-0.13;100.00;99458.53;4954052;28;20694;-57
2022/12/19 06:22:34;;;;;;;0.07;0.07;;;;;;;-0.15;100.00;99460.34;4957627;28;20292;-56
2022/12/19 06:25:01;;;;;;;0.00;0.00;;;;;;;-0.12;100.00;99467.91;4956110;28;20324;-57
2022/12/19 06:27:27;;;;;;;0.00;0.00;;;;;;;-0.11;100.00;99468.78;4955996;28;20234;-57
2022/12/19 06:29:54;;;;;;;0.00;0.00;;;;;;;-0.11;100.00;99461.88;4952013;28;20289;-56
2022/12/19 06:32:20;;;;;;;0.00;0.00;;;;;;;-0.10;100.00;99455.84;4956568;28;20281;-56
2022/12/19 06:34:48;;;;;;;0.00;0.00;;;;;;;-0.07;100.00;99457.47;4957187;28;20284;-57
2022/12/19 06:37:15;;;;;;;0.10;0.10;;;;;;;-0.10;100.00;99457.59;4956037;28;20241;-57
2022/12/19 06:39:41;;;;;;;0.00;0.00;;;;;;;-0.11;100.00;99449.06;4956242;28;20234;-58
2022/12/19 06:42:22;;;;;;;0.00;0.00;;;;;;;-0.08;100.00;99451.50;4953797;28;20231;-58
2022/12/19 06:44:49;;;;;;;0.00;0.00;;;;;;;-0.09;100.00;99456.72;4951216;28;20229;-56
2022/12/19 06:47:16;;;;;;;0.10;0.10;;;;;;;-0.12;100.00;99449.94;4955524;28;20234;-56
2022/12/19 06:49:43;;;;;;;0.10;0.10;;;;;;;-0.12;100.00;99437.13;4955262;28;20226;-58
2022/12/19 06:52:14;;;;;;;0.07;0.07;;;;;;;-0.16;100.00;99441.56;4952891;28;20260;-58
2022/12/19 06:54:41;;;;;;;0.00;0.00;;;;;;;-0.13;100.00;99435.44;4958033;28;20312;-56
2022/12/19 06:57:07;;;;;;;0.00;0.00;;;;;;;-0.09;100.00;99436.19;4953748;28;20230;-57
2022/12/19 06:59:34;;;;;;;0.00;0.00;;;;;;;-0.05;100.00;99440.28;4957418;28;20225;-57
2022/12/19 07:02:10;;;;;;;0.00;0.00;;;;;;;-0.02;100.00;99456.38;4953054;28;20249;-57
2022/12/19 07:04:41;;;;;;;0.10;0.10;;;;;;;0.01;100.00;99446.88;4953898;28;21177;-54
2022/12/19 07:07:08;;;;;;;0.00;0.00;;;;;;;0.05;100.00;99443.28;4952610;28;20736;-57
2022/12/19 07:09:36;;;;;;;0.00;0.00;;;;;;;0.07;100.00;99446.63;4954241;28;20605;-57
2022/12/19 07:12:03;;;;;;;0.10;0.10;;;;;;;0.07;100.00;99451.75;4956929;28;20237;-55
2022/12/19 07:14:29;;;;;;;0.00;0.00;;;;;;;0.07;100.00;99460.28;4958775;28;20898;-57
2022/12/19 07:16:59;;;;;;;0.00;0.00;;;;;;;0.01;100.00;99462.28;4953900;28;20255;-56
2022/12/19 07:19:28;;;;;;;0.00;0.00;;;;;;;0.03;100.00;99468.19;4951716;28;20234;-59
2022/12/19 07:21:55;;;;;;;0.00;0.00;;;;;;;-0.01;100.00;99476.00;4954291;28;20237;-57
2022/12/19 07:24:22;;;;;;;0.00;0.00;;;;;;;0.01;100.00;99475.94;4954640;28;20773;-58
2022/12/19 07:26:50;;;;;;;0.10;0.10;;;;;;;0.00;100.00;99479.44;4957310;28;20622;-56
2022/12/19 07:29:17;;;;;;;0.00;0.00;;;;;;;0.05;100.00;99486.94;4953123;28;20290;-57
2022/12/19 07:31:44;;;;;;;0.00;0.00;;;;;;;-0.04;100.00;99488.97;4955257;28;20268;-58
2022/12/19 07:34:10;;;;;;;0.00;0.00;;;;;;;-0.01;100.00;99488.03;4952316;28;20229;-58
2022/12/19 07:36:37;;;;;;;0.00;0.00;;;;;;;-0.02;100.00;99483.78;4957920;28;20234;-56
2022/12/19 07:39:04;;;;;;;0.00;0.00;;;;;;;0.02;100.00;99485.31;4951033;28;20240;-57
2022/12/19 07:41:30;;;;;;;0.00;0.00;;;;;;;0.02;100.00;99487.88;4954906;28;20250;-57
2022/12/19 07:43:58;;;;;;;0.10;0.10;;;;;;;0.03;100.00;99486.16;4951775;28;20244;-56
2022/12/19 07:46:28;;;;;;;0.00;0.00;;;;;;;0.10;100.00;99485.00;4957346;28;20237;-57
2022/12/19 07:48:55;;;;;;;0.00;0.00;;;;;;;0.10;100.00;99485.00;4955737;28;20232;-55
2022/12/19 07:51:21;;;;;;;0.00;0.00;;;;;;;0.15;100.00;99488.22;4958565;28;20303;-57
2022/12/19 07:53:48;;;;;;;0.00;0.00;;;;;;;0.16;100.00;99479.63;4954389;28;20286;-57
2022/12/19 07:56:16;;;;;;;0.00;0.00;;;;;;;0.18;100.00;99482.13;4952334;28;20236;-56
2022/12/19 07:58:43;;;;;;;0.10;0.10;;;;;;;0.23;100.00;99490.47;4952919;28;20231;-57
2022/12/19 08:01:11;;;;;;;0.03;0.03;;;;;;;0.32;100.00;99487.50;4955191;28;20253;-57
2022/12/19 08:03:38;;;;;;;0.00;0.00;;;;;;;0.35;100.00;99494.28;4955144;28;20243;-56
2022/12/19 08:06:07;;;;;;;0.00;0.00;;;;;;;0.39;100.00;99485.53;4953122;28;20232;-58
2022/12/19 08:08:34;;;;;;;0.00;0.00;;;;;;;0.44;100.00;99494.72;4958747;28;20241;-57
2022/12/19 08:11:08;;;;;;;0.00;0.00;;;;;;;0.50;100.00;99498.78;4954034;28;20234;-57
2022/12/19 08:13:35;;;;;;;0.00;0.00;;;;;;;0.57;100.00;99473.63;4953822;28;20256;-56
2022/12/19 08:16:02;;;;;;;0.00;0.00;;;;;;;0.58;100.00;99473.56;4950577;28;20277;-56
2022/12/19 08:18:30;;;;;;;0.00;0.00;;;;;;;0.61;100.00;99471.75;4952812;28;20233;-56
2022/12/19 08:20:57;;;;;;;0.00;0.00;;;;;;;0.66;100.00;99459.53;4952264;28;20234;-55
2022/12/19 08:23:24;;;;;;;0.00;0.00;;;;;;;0.67;100.00;99458.63;4956097;28;20237;-56
2022/12/19 08:25:59;;;;;;;0.00;0.00;;;;;;;0.76;100.00;99467.69;4952164;28;20234;-57
2022/12/19 08:28:26;;;;;;;0.00;0.00;;;;;;;0.67;100.00;99464.63;4955114;28;20288;-57
2022/12/19 08:30:52;;;;;;;0.00;0.00;;;;;;;0.67;100.00;99461.22;4953830;28;20245;-57
2022/12/19 08:33:19;;;;;;;0.00;0.00;;;;;;;0.76;100.00;99470.28;4956345;28;20330;-56
2022/12/19 08:35:47;;;;;;;0.00;0.00;;;;;;;0.76;100.00;99465.13;4956272;28;20232;-57
2022/12/19 08:38:13;;;;;;;0.00;0.00;;;;;;;0.84;100.00;99460.50;4950856;28;20234;-57
2022/12/19 08:40:40;;;;;;;0.00;0.00;;;;;;;0.99;100.00;99449.53;4954234;28;20285;-57
2022/12/19 08:43:06;;;;;;;0.00;0.00;;;;;;;1.15;100.00;99449.66;4951891;28;20238;-57
2022/12/19 08:45:33;;;;;;;0.00;0.00;;;;;;;1.27;100.00;99450.81;4956253;28;20300;-57
2022/12/19 08:47:59;;;;;;;0.07;0.07;;;;;;;1.27;100.00;99452.56;4951364;28;20267;-58
2022/12/19 08:50:26;;;;;;;0.00;0.00;;;;;;;1.44;100.00;99446.59;4957056;28;20559;-57
2022/12/19 08:52:54;;;;;;;0.00;0.00;;;;;;;1.50;100.00;99448.06;4950821;28;20241;-57
2022/12/19 08:55:20;;;;;;;0.00;0.00;;;;;;;1.49;100.00;99443.84;4954336;28;20289;-58
2022/12/19 08:57:47;;;;;;;0.00;0.00;;;;;;;1.57;100.00;99447.69;4951387;28;20234;-57
2022/12/19 09:00:15;;;;;;;0.00;0.00;;;;;;;1.59;100.00;99452.78;4950676;28;20755;-58
2022/12/19 09:02:42;;;;;;;0.00;0.00;;;;;;;1.41;100.00;99449.31;4953838;28;20233;-57
2022/12/19 09:05:08;;;;;;;0.00;0.00;;;;;;;1.51;100.00;99455.72;4949320;28;20630;-58
2022/12/19 09:07:35;;;;;;;0.00;0.00;;;;;;;1.62;100.00;99450.88;4950455;28;20230;-58
2022/12/19 09:10:04;;;;;;;0.00;0.00;;;;;;;1.76;100.00;99459.69;4952030;28;20238;-58
2022/12/19 09:12:31;;;;;;;0.07;0.07;;;;;;;1.64;100.00;99453.38;4954674;28;20711;-57
2022/12/19 09:14:57;;;;;;;0.10;0.10;;;;;;;1.75;100.00;99455.44;4952245;28;20705;-57
2022/12/19 09:17:24;;;;;;;0.00;0.00;;;;;;;1.80;100.00;99445.75;4956402;28;20244;-57
2022/12/19 09:19:50;;;;;;;0.10;0.10;;;;;;;1.96;100.00;99445.03;4952706;28;20300;-57
2022/12/19 09:22:17;;;;;;;0.10;0.10;;;;;;;2.05;100.00;99442.00;4950855;28;20245;-57
2022/12/19 09:24:44;;;;;;;0.03;0.03;;;;;;;2.20;100.00;99430.06;4954098;28;20238;-60
2022/12/19 09:27:11;;;;;;;0.00;0.00;;;;;;;2.35;100.00;99428.44;4952985;28;20237;-58
2022/12/19 09:29:38;;;;;;;0.00;0.00;;;;;;;2.47;100.00;99435.56;4953974;28;20240;-58
2022/12/19 09:32:05;;;;;;;0.00;0.00;;;;;;;2.58;100.00;99437.59;4953273;28;20238;-54
2022/12/19 09:34:31;;;;;;;0.00;0.00;;;;;;;2.46;100.00;99438.22;4953541;28;20301;-57
2022/12/19 09:36:58;;;;;;;0.00;0.00;;;;;;;2.46;100.00;99443.38;4952018;28;20241;-55
2022/12/19 09:39:25;;;;;;;0.03;0.03;;;;;;;2.35;100.00;99437.03;4956884;28;20324;-57
2022/12/19 09:42:13;;;;;;;0.00;0.00;;;;;;;2.37;100.00;99444.66;4953369;28;20246;-58
2022/12/19 09:44:57;;;;;;;0.00;0.00;;;;;;;2.56;100.00;99436.84;4955949;28;20737;-57
2022/12/19 09:47:27;;;;;;;0.00;0.00;;;;;;;2.76;100.00;99425.47;4955165;28;20230;-58
2022/12/19 09:49:54;;;;;;;0.00;0.00;;;;;;;2.90;100.00;99431.66;4955526;28;20286;-57
2022/12/19 09:52:26;;;;;;;0.00;0.00;;;;;;;3.04;100.00;99443.78;4956710;28;20287;-58
2022/12/19 09:54:57;;;;;;;0.00;0.00;;;;;;;3.15;100.00;99451.78;4957406;28;20305;-57
2022/12/19 09:57:30;;;;;;;0.00;0.00;;;;;;;3.16;100.00;99437.16;4958432;28;20231;-56
2022/12/19 10:00:03;;;;;;;0.00;0.00;;;;;;;3.09;100.00;99423.75;4953615;28;20302;-54
2022/12/19 10:02:41;;;;;;;0.00;0.00;;;;;;;3.13;100.00;99407.19;4952927;28;20795;-57
2022/12/19 10:05:15;;;;;;;0.00;0.00;;;;;;;3.22;100.00;99411.00;4952925;28;20245;-56
2022/12/19 10:07:43;;;;;;;0.00;0.00;;;;;;;3.32;99.51;99409.56;4948501;28;20244;-56
2022/12/19 10:10:15;;;;;;;0.10;0.10;;;;;;;3.49;98.67;99415.53;4946814;28;20242;-56
2022/12/19 10:13:06;;;;;;;0.03;0.03;;;;;;;3.39;98.99;99410.91;4951200;28;20234;-58
2022/12/19 10:15:42;;;;;;;0.00;0.00;;;;;;;3.40;99.21;99409.97;4950221;28;20289;-57
2022/12/19 10:18:26;;;;;;;0.00;0.00;;;;;;;3.49;98.47;99412.97;4950068;28;20345;-56
2022/12/19 10:20:59;;;;;;;0.10;0.10;;;;;;;3.59;98.52;99410.72;4950909;28;20249;-56
2022/12/19 10:23:47;;;;;;;0.00;0.00;;;;;;;3.41;98.81;99405.66;4967211;28;20839;-55
2022/12/19 10:26:19;;;;;;;0.10;0.10;;;;;;;3.47;99.09;99396.72;4949191;28;20239;-56
2022/12/19 10:29:03;;;;;;;0.00;0.00;;;;;;;3.60;100.00;99394.31;4949161;28;20240;-56
2022/12/19 10:31:36;;;;;;;0.00;0.00;;;;;;;3.62;99.29;99387.31;4938102;28;20404;-56
2022/12/19 10:34:13;;;;;;;0.10;0.10;;;;;;;3.80;99.23;99388.00;4945276;28;20650;-56
2022/12/19 10:36:45;;;;;;;0.10;0.10;;;;;;;3.93;97.27;99385.50;4948392;28;20273;-56
2022/12/19 10:39:23;;;;;;;0.03;0.03;;;;;;;3.98;96.46;99383.50;4949948;28;20238;-55
2022/12/19 10:41:55;;;;;;;0.00;0.00;;;;;;;4.16;96.75;99397.09;4947599;28;20878;-57
2022/12/19 10:44:26;;;;;;;0.00;0.00;;;;;;;3.86;96.31;99387.63;4949890;28;20246;-56
2022/12/19 10:46:54;;;;;;;0.00;0.00;;;;;;;3.91;96.92;99390.78;4950834;28;20233;-56
2022/12/19 10:49:23;;;;;;;0.00;0.00;;;;;;;3.90;96.49;99381.38;4952886;28;20232;-56
2022/12/19 10:51:57;;;;;;;0.00;0.00;;;;;;;3.99;96.49;99390.31;4936074;28;20578;-61
2022/12/19 10:54:24;;;;;;;0.03;0.03;;;;;;;4.06;96.87;99386.47;4949834;28;20581;-56
2022/12/19 10:56:51;;;;;;;0.00;0.00;;;;;;;4.10;97.25;99392.28;4931230;28;20248;-56
2022/12/19 10:59:20;;;;;;;0.07;0.07;;;;;;;4.07;97.92;99387.31;4933335;28;20242;-57
2022/12/19 11:01:48;;;;;;;0.03;0.03;;;;;;;4.17;96.22;99374.66;4937681;28;20234;-56
2022/12/19 11:04:26;;;;;;;0.00;0.00;;;;;;;4.27;95.83;99368.84;4942255;28;20565;-55
2022/12/19 11:07:05;;;;;;;0.00;0.00;;;;;;;4.27;94.88;99361.09;4947249;28;20233;-56
2022/12/19 11:09:37;;;;;;;8.80;5.20;;;;;;;4.39;94.29;99356.94;4947091;28;20222;-55
2022/12/19 11:12:11;;;;;;;22.30;13.30;;;;;;;4.54;93.99;99352.56;4952161;28;20233;-58
2022/12/19 11:14:40;;;;;;;18.17;11.90;;;;;;;4.69;92.88;99345.66;4946941;28;20446;-57
2022/12/19 11:17:23;;;;;;;17.33;10.07;;;;;;;4.55;93.81;99353.44;4944086;28;20241;-56
2022/12/19 11:19:52;;;;;;;18.80;10.43;;;;;;;4.62;93.82;99344.38;4949639;28;20230;-56
2022/12/19 11:22:52;;;;;;;14.03;8.10;;;;;;;4.54;93.43;99344.81;4911377;28;20232;-54
2022/12/19 11:25:21;;;;;;;14.90;8.83;;;;;;;4.62;94.00;99341.78;4940129;28;20245;-57
2022/12/19 11:27:48;;;;;;;13.87;8.17;;;;;;;4.59;94.42;99354.91;4945791;28;20240;-57
2022/12/19 11:30:23;;;;;;;19.77;12.03;;;;;;;4.58;94.42;99359.22;4923822;28;20316;-58
2022/12/19 11:33:08;;;;;;;16.37;9.27;;;;;;;4.44;94.88;99346.31;4956002;28;20241;-58
2022/12/19 11:35:46;;;;;;;12.33;7.13;;;;;;;4.17;96.08;99333.31;4892997;28;20248;-58
2022/12/19 11:38:16;;;;;;;16.77;10.37;;;;;;;4.04;97.31;99341.78;4927804;28;20325;-58
2022/12/19 11:40:47;;;;;;;24.70;13.47;;;;;;;4.05;100.00;99327.16;4910362;28;20234;-58
2022/12/19 11:43:19;;;;;;;25.07;13.33;;;;;;;4.33;98.91;99320.28;4949908;28;20261;-57
2022/12/19 11:45:51;;;;;;;21.63;12.70;;;;;;;4.52;98.83;99338.09;4938364;28;20237;-57
2022/12/19 11:48:24;;;;;;;21.27;11.07;;;;;;;4.56;97.24;99327.47;4946373;28;20283;-56